sensor_id;sensor_type;location;lat;lon;timestamp;temperature;humidity
45729;DHT22;31439;53.512;10.206;2024-03-02T00:00:50;10.00;99.90
45729;DHT22;31439;53.512;10.206;2024-03-02T00:03:17;10.10;99.90
45729;DHT22;31439;53.512;10.206;2024-03-02T00:05:43;10.10;99.90
45729;DHT22;31439;53.512;10.206;2024-03-02T00:08:09;10.00;99.90
45729;DHT22;31439;53.512;10.206;2024-03-02T00:10:36;10.00;99.90
45729;DHT22;31439;53.512;10.206;2024-03-02T00:13:05;10.10;99.90
45729;DHT22;31439;53.512;10.206;2024-03-02T00:18:01;10.10;99.90
45729;DHT22;31439;53.512;10.206;2024-03-02T00:20:27;10.00;99.90
45729;DHT22;31439;53.512;10.206;2024-03-02T00:23:04;10.00;99.90
45729;DHT22;31439;53.512;10.206;2024-03-02T00:25:53;9.90;99.90
45729;DHT22;31439;53.512;10.206;2024-03-02T00:28:33;10.00;99.90
45729;DHT22;31439;53.512;10.206;2024-03-02T00:33:34;10.00;99.90
45729;DHT22;31439;53.512;10.206;2024-03-02T00:36:04;10.00;99.90
45729;DHT22;31439;53.512;10.206;2024-03-02T00:38:31;9.90;99.90
45729;DHT22;31439;53.512;10.206;2024-03-02T00:40:59;9.90;99.90
45729;DHT22;31439;53.512;10.206;2024-03-02T00:43:44;9.80;99.90
45729;DHT22;31439;53.512;10.206;2024-03-02T00:46:11;9.90;99.90
45729;DHT22;31439;53.512;10.206;2024-03-02T00:48:37;9.90;99.90
45729;DHT22;31439;53.512;10.206;2024-03-02T00:51:04;10.30;99.90
45729;DHT22;31439;53.512;10.206;2024-03-02T00:53:30;9.90;99.90
45729;DHT22;31439;53.512;10.206;2024-03-02T00:55:56;9.90;99.90
45729;DHT22;31439;53.512;10.206;2024-03-02T00:58:22;9.80;99.90
45729;DHT22;31439;53.512;10.206;2024-03-02T01:00:47;9.60;99.90
45729;DHT22;31439;53.512;10.206;2024-03-02T01:03:13;9.70;99.90
45729;DHT22;31439;53.512;10.206;2024-03-02T01:05:42;9.70;99.90
45729;DHT22;31439;53.512;10.206;2024-03-02T01:08:08;9.70;99.90
45729;DHT22;31439;53.512;10.206;2024-03-02T01:10:34;9.70;99.90
45729;DHT22;31439;53.512;10.206;2024-03-02T01:13:00;9.70;99.90
45729;DHT22;31439;53.512;10.206;2024-03-02T01:15:25;9.70;99.90
45729;DHT22;31439;53.512;10.206;2024-03-02T01:17:51;9.70;99.90
45729;DHT22;31439;53.512;10.206;2024-03-02T01:20:17;9.80;99.90
45729;DHT22;31439;53.512;10.206;2024-03-02T01:22:42;9.70;99.90
45729;DHT22;31439;53.512;10.206;2024-03-02T01:25:09;9.70;99.90
45729;DHT22;31439;53.512;10.206;2024-03-02T01:27:35;9.70;99.90
45729;DHT22;31439;53.512;10.206;2024-03-02T01:30:00;9.70;99.90
45729;DHT22;31439;53.512;10.206;2024-03-02T01:32:26;9.60;99.90
45729;DHT22;31439;53.512;10.206;2024-03-02T01:34:52;9.60;99.90
45729;DHT22;31439;53.512;10.206;2024-03-02T01:37:17;9.60;99.90
45729;DHT22;31439;53.512;10.206;2024-03-02T01:39:43;9.50;99.90
45729;DHT22;31439;53.512;10.206;2024-03-02T01:42:09;9.50;99.90
45729;DHT22;31439;53.512;10.206;2024-03-02T01:44:36;9.50;99.90
45729;DHT22;31439;53.512;10.206;2024-03-02T01:47:01;9.50;99.90
45729;DHT22;31439;53.512;10.206;2024-03-02T01:49:27;9.50;99.90
45729;DHT22;31439;53.512;10.206;2024-03-02T01:51:53;9.60;99.90
45729;DHT22;31439;53.512;10.206;2024-03-02T01:54:18;9.50;99.90
45729;DHT22;31439;53.512;10.206;2024-03-02T01:56:44;9.50;99.90
45729;DHT22;31439;53.512;10.206;2024-03-02T01:59:10;9.50;99.90
45729;DHT22;31439;53.512;10.206;2024-03-02T02:01:36;9.50;99.90
45729;DHT22;31439;53.512;10.206;2024-03-02T02:04:02;9.50;99.90
45729;DHT22;31439;53.512;10.206;2024-03-02T02:06:27;9.40;99.90
45729;DHT22;31439;53.512;10.206;2024-03-02T02:08:53;9.50;99.90
45729;DHT22;31439;53.512;10.206;2024-03-02T02:11:19;9.50;99.90
45729;DHT22;31439;53.512;10.206;2024-03-02T02:13:44;9.50;99.90
45729;DHT22;31439;53.512;10.206;2024-03-02T02:16:10;9.50;99.90
45729;DHT22;31439;53.512;10.206;2024-03-02T02:18:36;9.50;99.90
45729;DHT22;31439;53.512;10.206;2024-03-02T02:21:02;9.50;99.90
45729;DHT22;31439;53.512;10.206;2024-03-02T02:23:37;9.50;99.90
45729;DHT22;31439;53.512;10.206;2024-03-02T02:26:16;9.50;99.90
45729;DHT22;31439;53.512;10.206;2024-03-02T02:28:41;9.40;99.90
45729;DHT22;31439;53.512;10.206;2024-03-02T02:31:13;9.50;99.90
45729;DHT22;31439;53.512;10.206;2024-03-02T02:33:40;9.50;99.90
45729;DHT22;31439;53.512;10.206;2024-03-02T02:36:05;9.50;99.90
45729;DHT22;31439;53.512;10.206;2024-03-02T02:38:33;9.40;99.90
45729;DHT22;31439;53.512;10.206;2024-03-02T02:41:00;9.40;99.90
45729;DHT22;31439;53.512;10.206;2024-03-02T02:45:52;9.40;99.90
45729;DHT22;31439;53.512;10.206;2024-03-02T02:48:17;9.40;99.90
45729;DHT22;31439;53.512;10.206;2024-03-02T02:50:43;9.40;99.90
45729;DHT22;31439;53.512;10.206;2024-03-02T02:53:09;9.50;99.90
45729;DHT22;31439;53.512;10.206;2024-03-02T02:55:35;9.50;99.90
45729;DHT22;31439;53.512;10.206;2024-03-02T03:00:32;9.50;99.90
45729;DHT22;31439;53.512;10.206;2024-03-02T03:02:58;9.50;99.90
45729;DHT22;31439;53.512;10.206;2024-03-02T03:05:25;9.50;99.90
45729;DHT22;31439;53.512;10.206;2024-03-02T03:07:51;9.50;99.90
45729;DHT22;31439;53.512;10.206;2024-03-02T03:10:17;9.60;99.90
45729;DHT22;31439;53.512;10.206;2024-03-02T03:12:43;9.50;99.90
45729;DHT22;31439;53.512;10.206;2024-03-02T03:15:09;9.50;99.90
45729;DHT22;31439;53.512;10.206;2024-03-02T03:17:35;9.50;99.90
45729;DHT22;31439;53.512;10.206;2024-03-02T03:20:03;9.50;99.90
45729;DHT22;31439;53.512;10.206;2024-03-02T03:22:30;9.50;99.90
45729;DHT22;31439;53.512;10.206;2024-03-02T03:24:57;9.50;99.90
45729;DHT22;31439;53.512;10.206;2024-03-02T03:27:22;9.40;99.90
45729;DHT22;31439;53.512;10.206;2024-03-02T03:29:48;9.40;99.90
45729;DHT22;31439;53.512;10.206;2024-03-02T03:32:14;9.40;99.90
45729;DHT22;31439;53.512;10.206;2024-03-02T03:34:39;9.50;99.90
45729;DHT22;31439;53.512;10.206;2024-03-02T03:37:05;9.50;99.90
45729;DHT22;31439;53.512;10.206;2024-03-02T03:39:31;9.50;99.90
45729;DHT22;31439;53.512;10.206;2024-03-02T03:41:59;9.50;99.90
45729;DHT22;31439;53.512;10.206;2024-03-02T03:44:24;9.50;99.90
45729;DHT22;31439;53.512;10.206;2024-03-02T03:46:50;9.50;99.90
45729;DHT22;31439;53.512;10.206;2024-03-02T03:49:16;9.50;99.90
45729;DHT22;31439;53.512;10.206;2024-03-02T03:51:42;9.50;99.90
45729;DHT22;31439;53.512;10.206;2024-03-02T03:54:08;9.50;99.90
45729;DHT22;31439;53.512;10.206;2024-03-02T03:56:33;9.50;99.90
45729;DHT22;31439;53.512;10.206;2024-03-02T03:58:59;9.40;99.90
45729;DHT22;31439;53.512;10.206;2024-03-02T04:01:25;9.40;99.90
45729;DHT22;31439;53.512;10.206;2024-03-02T04:03:50;9.40;99.90
45729;DHT22;31439;53.512;10.206;2024-03-02T04:06:16;9.50;99.90
45729;DHT22;31439;53.512;10.206;2024-03-02T04:08:42;9.50;99.90
45729;DHT22;31439;53.512;10.206;2024-03-02T04:11:08;9.50;99.90
45729;DHT22;31439;53.512;10.206;2024-03-02T04:13:34;9.50;99.90
45729;DHT22;31439;53.512;10.206;2024-03-02T04:15:59;9.50;99.90
45729;DHT22;31439;53.512;10.206;2024-03-02T04:18:25;9.50;99.90
45729;DHT22;31439;53.512;10.206;2024-03-02T04:20:51;9.50;99.90
45729;DHT22;31439;53.512;10.206;2024-03-02T04:23:16;9.50;99.90
45729;DHT22;31439;53.512;10.206;2024-03-02T04:25:42;9.50;99.90
45729;DHT22;31439;53.512;10.206;2024-03-02T04:28:07;9.50;99.90
45729;DHT22;31439;53.512;10.206;2024-03-02T04:30:33;9.50;99.90
45729;DHT22;31439;53.512;10.206;2024-03-02T04:32:59;9.50;99.90
45729;DHT22;31439;53.512;10.206;2024-03-02T04:35:24;9.40;99.90
45729;DHT22;31439;53.512;10.206;2024-03-02T04:37:51;9.50;99.90
45729;DHT22;31439;53.512;10.206;2024-03-02T04:40:16;9.40;99.90
45729;DHT22;31439;53.512;10.206;2024-03-02T04:42:42;9.40;99.90
45729;DHT22;31439;53.512;10.206;2024-03-02T04:45:08;9.40;99.90
45729;DHT22;31439;53.512;10.206;2024-03-02T04:47:34;9.40;99.90
45729;DHT22;31439;53.512;10.206;2024-03-02T04:50:00;9.40;99.90
45729;DHT22;31439;53.512;10.206;2024-03-02T04:52:25;9.40;99.90
45729;DHT22;31439;53.512;10.206;2024-03-02T04:54:51;9.40;99.90
45729;DHT22;31439;53.512;10.206;2024-03-02T04:57:43;9.40;99.90
45729;DHT22;31439;53.512;10.206;2024-03-02T05:00:09;9.40;99.90
45729;DHT22;31439;53.512;10.206;2024-03-02T05:02:35;9.40;99.90
45729;DHT22;31439;53.512;10.206;2024-03-02T05:05:01;9.40;99.90
45729;DHT22;31439;53.512;10.206;2024-03-02T05:07:28;9.40;99.90
45729;DHT22;31439;53.512;10.206;2024-03-02T05:09:53;9.40;99.90
45729;DHT22;31439;53.512;10.206;2024-03-02T05:12:19;9.40;99.90
45729;DHT22;31439;53.512;10.206;2024-03-02T05:15:03;9.30;99.90
45729;DHT22;31439;53.512;10.206;2024-03-02T05:17:29;9.30;99.90
45729;DHT22;31439;53.512;10.206;2024-03-02T05:19:55;9.30;99.90
45729;DHT22;31439;53.512;10.206;2024-03-02T05:22:21;9.40;99.90
45729;DHT22;31439;53.512;10.206;2024-03-02T05:24:46;9.30;99.90
45729;DHT22;31439;53.512;10.206;2024-03-02T05:27:12;9.30;99.90
45729;DHT22;31439;53.512;10.206;2024-03-02T05:32:03;9.40;99.90
45729;DHT22;31439;53.512;10.206;2024-03-02T05:34:29;9.40;99.90
45729;DHT22;31439;53.512;10.206;2024-03-02T05:36:56;9.40;99.90
45729;DHT22;31439;53.512;10.206;2024-03-02T05:39:23;9.40;99.90
45729;DHT22;31439;53.512;10.206;2024-03-02T05:41:48;9.40;99.90
45729;DHT22;31439;53.512;10.206;2024-03-02T05:44:14;9.40;99.90
45729;DHT22;31439;53.512;10.206;2024-03-02T05:49:07;9.50;99.90
45729;DHT22;31439;53.512;10.206;2024-03-02T05:53:59;9.40;99.90
45729;DHT22;31439;53.512;10.206;2024-03-02T05:56:25;9.40;99.90
45729;DHT22;31439;53.512;10.206;2024-03-02T05:58:50;9.30;99.90
45729;DHT22;31439;53.512;10.206;2024-03-02T06:01:41;9.30;99.90
45729;DHT22;31439;53.512;10.206;2024-03-02T06:04:08;9.30;99.90
45729;DHT22;31439;53.512;10.206;2024-03-02T06:06:34;9.40;99.90
45729;DHT22;31439;53.512;10.206;2024-03-02T06:09:04;9.40;99.90
45729;DHT22;31439;53.512;10.206;2024-03-02T06:11:36;9.40;99.90
45729;DHT22;31439;53.512;10.206;2024-03-02T06:14:03;9.40;99.90
45729;DHT22;31439;53.512;10.206;2024-03-02T06:16:29;9.40;99.90
45729;DHT22;31439;53.512;10.206;2024-03-02T06:18:55;9.40;99.90
45729;DHT22;31439;53.512;10.206;2024-03-02T06:21:26;9.40;99.90
45729;DHT22;31439;53.512;10.206;2024-03-02T06:23:52;9.30;99.90
45729;DHT22;31439;53.512;10.206;2024-03-02T06:28:44;9.30;99.90
45729;DHT22;31439;53.512;10.206;2024-03-02T06:31:10;9.30;99.90
45729;DHT22;31439;53.512;10.206;2024-03-02T06:33:35;9.20;99.90
45729;DHT22;31439;53.512;10.206;2024-03-02T06:36:02;9.30;99.90
45729;DHT22;31439;53.512;10.206;2024-03-02T06:38:28;9.30;99.90
45729;DHT22;31439;53.512;10.206;2024-03-02T06:40:53;9.30;99.90
45729;DHT22;31439;53.512;10.206;2024-03-02T06:43:20;9.30;99.90
45729;DHT22;31439;53.512;10.206;2024-03-02T06:45:50;9.30;99.90
45729;DHT22;31439;53.512;10.206;2024-03-02T06:50:48;9.40;99.90
45729;DHT22;31439;53.512;10.206;2024-03-02T06:53:14;9.40;99.90
45729;DHT22;31439;53.512;10.206;2024-03-02T06:55:43;9.40;99.90
45729;DHT22;31439;53.512;10.206;2024-03-02T06:58:11;9.40;99.90
45729;DHT22;31439;53.512;10.206;2024-03-02T07:00:36;9.40;99.90
45729;DHT22;31439;53.512;10.206;2024-03-02T07:05:28;9.40;99.90
45729;DHT22;31439;53.512;10.206;2024-03-02T07:07:53;9.40;99.90
45729;DHT22;31439;53.512;10.206;2024-03-02T07:10:19;9.40;99.90
45729;DHT22;31439;53.512;10.206;2024-03-02T07:20:15;9.50;99.90
45729;DHT22;31439;53.512;10.206;2024-03-02T07:22:40;9.60;99.90
45729;DHT22;31439;53.512;10.206;2024-03-02T07:25:06;9.60;99.90
45729;DHT22;31439;53.512;10.206;2024-03-02T07:27:32;9.60;99.90
45729;DHT22;31439;53.512;10.206;2024-03-02T07:29:59;9.60;99.90
45729;DHT22;31439;53.512;10.206;2024-03-02T07:32:24;9.60;99.90
45729;DHT22;31439;53.512;10.206;2024-03-02T07:34:50;9.60;99.90
45729;DHT22;31439;53.512;10.206;2024-03-02T07:39:44;9.60;99.90
45729;DHT22;31439;53.512;10.206;2024-03-02T07:42:10;9.60;99.90
45729;DHT22;31439;53.512;10.206;2024-03-02T07:44:35;9.70;99.90
45729;DHT22;31439;53.512;10.206;2024-03-02T07:47:01;9.70;99.90
45729;DHT22;31439;53.512;10.206;2024-03-02T07:51:55;9.80;99.90
45729;DHT22;31439;53.512;10.206;2024-03-02T07:54:21;9.80;99.90
45729;DHT22;31439;53.512;10.206;2024-03-02T07:56:46;9.80;99.90
45729;DHT22;31439;53.512;10.206;2024-03-02T07:59:13;9.90;99.90
45729;DHT22;31439;53.512;10.206;2024-03-02T08:01:38;9.90;99.90
45729;DHT22;31439;53.512;10.206;2024-03-02T08:06:30;10.00;99.90
45729;DHT22;31439;53.512;10.206;2024-03-02T08:08:57;10.00;99.90
45729;DHT22;31439;53.512;10.206;2024-03-02T08:11:23;10.00;99.90
45729;DHT22;31439;53.512;10.206;2024-03-02T08:13:49;10.10;99.90
45729;DHT22;31439;53.512;10.206;2024-03-02T08:16:16;10.00;99.90
45729;DHT22;31439;53.512;10.206;2024-03-02T08:18:45;10.00;99.90
45729;DHT22;31439;53.512;10.206;2024-03-02T08:21:11;10.10;99.90
45729;DHT22;31439;53.512;10.206;2024-03-02T08:23:37;10.10;99.90
45729;DHT22;31439;53.512;10.206;2024-03-02T08:26:06;10.10;99.90
45729;DHT22;31439;53.512;10.206;2024-03-02T08:28:32;10.00;99.90
45729;DHT22;31439;53.512;10.206;2024-03-02T08:30:58;10.00;99.90
45729;DHT22;31439;53.512;10.206;2024-03-02T08:45:58;12.80;99.90
45729;DHT22;31439;53.512;10.206;2024-03-02T08:48:27;13.30;99.90
45729;DHT22;31439;53.512;10.206;2024-03-02T08:50:59;12.90;99.90
45729;DHT22;31439;53.512;10.206;2024-03-02T08:53:25;12.60;99.90
45729;DHT22;31439;53.512;10.206;2024-03-02T08:58:19;11.70;99.90
45729;DHT22;31439;53.512;10.206;2024-03-02T09:06:36;10.90;99.90
45729;DHT22;31439;53.512;10.206;2024-03-02T09:09:15;10.90;99.90
45729;DHT22;31439;53.512;10.206;2024-03-02T09:11:41;10.90;99.90
45729;DHT22;31439;53.512;10.206;2024-03-02T09:17:21;10.90;99.90
45729;DHT22;31439;53.512;10.206;2024-03-02T09:22:16;10.80;99.90
45729;DHT22;31439;53.512;10.206;2024-03-02T09:24:41;10.80;99.90
45729;DHT22;31439;53.512;10.206;2024-03-02T09:29:36;10.90;99.90
45729;DHT22;31439;53.512;10.206;2024-03-02T09:32:02;10.90;99.90
45729;DHT22;31439;53.512;10.206;2024-03-02T09:34:28;10.90;99.90
45729;DHT22;31439;53.512;10.206;2024-03-02T09:44:14;11.00;99.90
45729;DHT22;31439;53.512;10.206;2024-03-02T09:46:43;11.10;99.90
45729;DHT22;31439;53.512;10.206;2024-03-02T09:49:10;11.20;99.90
45729;DHT22;31439;53.512;10.206;2024-03-02T09:51:37;11.20;99.90
45729;DHT22;31439;53.512;10.206;2024-03-02T09:54:07;11.30;99.90
45729;DHT22;31439;53.512;10.206;2024-03-02T09:56:33;11.30;99.90
45729;DHT22;31439;53.512;10.206;2024-03-02T09:58:59;11.40;99.90
45729;DHT22;31439;53.512;10.206;2024-03-02T10:01:25;11.40;99.90
45729;DHT22;31439;53.512;10.206;2024-03-02T10:03:53;11.50;99.90
45729;DHT22;31439;53.512;10.206;2024-03-02T10:06:20;11.50;99.90
45729;DHT22;31439;53.512;10.206;2024-03-02T10:08:46;11.60;99.90
45729;DHT22;31439;53.512;10.206;2024-03-02T10:13:51;11.80;99.90
45729;DHT22;31439;53.512;10.206;2024-03-02T10:16:17;11.80;99.90
45729;DHT22;31439;53.512;10.206;2024-03-02T10:18:42;11.90;99.90
45729;DHT22;31439;53.512;10.206;2024-03-02T10:21:14;11.90;99.90
45729;DHT22;31439;53.512;10.206;2024-03-02T10:23:40;11.90;99.90
45729;DHT22;31439;53.512;10.206;2024-03-02T10:26:26;11.90;99.90
45729;DHT22;31439;53.512;10.206;2024-03-02T10:28:54;12.00;99.90
45729;DHT22;31439;53.512;10.206;2024-03-02T10:31:25;12.10;99.90
45729;DHT22;31439;53.512;10.206;2024-03-02T10:33:57;12.10;99.90
45729;DHT22;31439;53.512;10.206;2024-03-02T10:41:23;12.40;99.90
45729;DHT22;31439;53.512;10.206;2024-03-02T10:43:52;12.50;99.90
45729;DHT22;31439;53.512;10.206;2024-03-02T10:46:35;12.60;99.90
45729;DHT22;31439;53.512;10.206;2024-03-02T10:49:07;12.70;99.90
45729;DHT22;31439;53.512;10.206;2024-03-02T10:51:36;10.00;99.90
45729;DHT22;31439;53.512;10.206;2024-03-02T10:54:04;12.70;99.90
45729;DHT22;31439;53.512;10.206;2024-03-02T10:56:35;12.80;99.90
45729;DHT22;31439;53.512;10.206;2024-03-02T11:01:47;12.90;99.90
45729;DHT22;31439;53.512;10.206;2024-03-02T11:04:15;12.80;99.90
45729;DHT22;31439;53.512;10.206;2024-03-02T11:06:51;12.90;99.90
45729;DHT22;31439;53.512;10.206;2024-03-02T11:09:24;12.90;99.90
45729;DHT22;31439;53.512;10.206;2024-03-02T11:14:42;13.00;99.90
45729;DHT22;31439;53.512;10.206;2024-03-02T11:17:13;12.90;99.90
45729;DHT22;31439;53.512;10.206;2024-03-02T11:19:41;12.90;99.90
45729;DHT22;31439;53.512;10.206;2024-03-02T11:22:09;12.90;99.90
45729;DHT22;31439;53.512;10.206;2024-03-02T11:24:35;13.00;99.90
45729;DHT22;31439;53.512;10.206;2024-03-02T11:27:02;13.00;99.90
45729;DHT22;31439;53.512;10.206;2024-03-02T11:32:05;13.10;99.90
45729;DHT22;31439;53.512;10.206;2024-03-02T11:34:32;13.10;99.90
45729;DHT22;31439;53.512;10.206;2024-03-02T11:37:00;13.20;99.90
45729;DHT22;31439;53.512;10.206;2024-03-02T11:39:29;13.20;99.90
45729;DHT22;31439;53.512;10.206;2024-03-02T11:41:56;13.10;99.90
45729;DHT22;31439;53.512;10.206;2024-03-02T11:44:24;13.20;99.90
45729;DHT22;31439;53.512;10.206;2024-03-02T11:47:00;13.10;99.90
45729;DHT22;31439;53.512;10.206;2024-03-02T11:49:43;13.10;99.90
45729;DHT22;31439;53.512;10.206;2024-03-02T11:52:11;13.10;99.90
45729;DHT22;31439;53.512;10.206;2024-03-02T11:54:38;13.00;99.90
45729;DHT22;31439;53.512;10.206;2024-03-02T11:57:13;13.00;99.90
45729;DHT22;31439;53.512;10.206;2024-03-02T11:59:40;13.00;99.90
45729;DHT22;31439;53.512;10.206;2024-03-02T12:02:06;13.00;99.90
45729;DHT22;31439;53.512;10.206;2024-03-02T12:04:32;12.90;99.90
45729;DHT22;31439;53.512;10.206;2024-03-02T12:07:00;12.90;99.90
45729;DHT22;31439;53.512;10.206;2024-03-02T12:09:28;12.90;99.90
45729;DHT22;31439;53.512;10.206;2024-03-02T12:12:07;12.90;99.90
45729;DHT22;31439;53.512;10.206;2024-03-02T12:14:35;12.90;99.90
45729;DHT22;31439;53.512;10.206;2024-03-02T12:17:02;13.00;99.90
45729;DHT22;31439;53.512;10.206;2024-03-02T12:19:28;13.00;99.90
45729;DHT22;31439;53.512;10.206;2024-03-02T12:21:56;13.00;99.90
45729;DHT22;31439;53.512;10.206;2024-03-02T12:24:22;13.00;99.90
45729;DHT22;31439;53.512;10.206;2024-03-02T12:26:49;13.00;99.90
45729;DHT22;31439;53.512;10.206;2024-03-02T12:29:15;13.00;99.90
45729;DHT22;31439;53.512;10.206;2024-03-02T12:31:42;13.10;99.90
45729;DHT22;31439;53.512;10.206;2024-03-02T12:34:12;13.10;99.90
45729;DHT22;31439;53.512;10.206;2024-03-02T12:36:39;13.20;99.90
45729;DHT22;31439;53.512;10.206;2024-03-02T12:39:05;13.20;99.90
45729;DHT22;31439;53.512;10.206;2024-03-02T12:41:30;13.20;99.90
45729;DHT22;31439;53.512;10.206;2024-03-02T12:43:56;13.20;99.90
45729;DHT22;31439;53.512;10.206;2024-03-02T12:46:22;13.20;99.90
45729;DHT22;31439;53.512;10.206;2024-03-02T12:48:47;13.20;99.90
45729;DHT22;31439;53.512;10.206;2024-03-02T12:51:13;13.20;99.90
45729;DHT22;31439;53.512;10.206;2024-03-02T12:53:39;13.30;99.90
45729;DHT22;31439;53.512;10.206;2024-03-02T12:56:05;13.40;99.90
45729;DHT22;31439;53.512;10.206;2024-03-02T12:58:41;13.40;99.90
45729;DHT22;31439;53.512;10.206;2024-03-02T13:01:08;13.40;99.90
45729;DHT22;31439;53.512;10.206;2024-03-02T13:03:41;13.50;99.90
45729;DHT22;31439;53.512;10.206;2024-03-02T13:06:07;13.60;99.90
45729;DHT22;31439;53.512;10.206;2024-03-02T13:08:33;13.60;99.90
45729;DHT22;31439;53.512;10.206;2024-03-02T13:10:59;13.60;99.90
45729;DHT22;31439;53.512;10.206;2024-03-02T13:13:25;13.60;99.90
45729;DHT22;31439;53.512;10.206;2024-03-02T13:15:55;13.70;99.90
45729;DHT22;31439;53.512;10.206;2024-03-02T13:18:21;13.60;99.90
45729;DHT22;31439;53.512;10.206;2024-03-02T13:23:13;13.60;99.90
45729;DHT22;31439;53.512;10.206;2024-03-02T13:25:39;13.60;99.90
45729;DHT22;31439;53.512;10.206;2024-03-02T13:28:06;13.60;99.90
45729;DHT22;31439;53.512;10.206;2024-03-02T13:30:32;13.60;99.90
45729;DHT22;31439;53.512;10.206;2024-03-02T13:35:24;13.60;99.90
45729;DHT22;31439;53.512;10.206;2024-03-02T13:37:49;13.60;99.90
45729;DHT22;31439;53.512;10.206;2024-03-02T13:40:16;13.60;99.90
45729;DHT22;31439;53.512;10.206;2024-03-02T13:42:46;13.60;99.90
45729;DHT22;31439;53.512;10.206;2024-03-02T13:45:15;13.50;99.90
45729;DHT22;31439;53.512;10.206;2024-03-02T13:50:07;13.50;99.90
45729;DHT22;31439;53.512;10.206;2024-03-02T13:52:33;13.40;99.90
45729;DHT22;31439;53.512;10.206;2024-03-02T13:59:51;13.50;99.90
45729;DHT22;31439;53.512;10.206;2024-03-02T14:02:17;13.50;99.90
45729;DHT22;31439;53.512;10.206;2024-03-02T14:07:10;13.60;99.90
45729;DHT22;31439;53.512;10.206;2024-03-02T14:09:38;13.70;99.90
45729;DHT22;31439;53.512;10.206;2024-03-02T14:12:04;13.70;99.90
45729;DHT22;31439;53.512;10.206;2024-03-02T14:14:30;14.00;99.90
45729;DHT22;31439;53.512;10.206;2024-03-02T14:16:56;14.10;99.90
45729;DHT22;31439;53.512;10.206;2024-03-02T14:19:26;14.20;99.90
45729;DHT22;31439;53.512;10.206;2024-03-02T14:21:51;14.30;99.90
45729;DHT22;31439;53.512;10.206;2024-03-02T14:24:17;14.30;99.90
45729;DHT22;31439;53.512;10.206;2024-03-02T14:26:42;14.30;99.90
45729;DHT22;31439;53.512;10.206;2024-03-02T14:29:08;14.40;99.90
45729;DHT22;31439;53.512;10.206;2024-03-02T14:31:34;14.40;99.90
45729;DHT22;31439;53.512;10.206;2024-03-02T14:34:00;14.30;99.90
45729;DHT22;31439;53.512;10.206;2024-03-02T14:36:26;14.20;99.90
45729;DHT22;31439;53.512;10.206;2024-03-02T14:38:55;14.30;99.90
45729;DHT22;31439;53.512;10.206;2024-03-02T14:41:21;14.30;99.90
45729;DHT22;31439;53.512;10.206;2024-03-02T14:43:47;14.30;99.90
45729;DHT22;31439;53.512;10.206;2024-03-02T14:48:39;14.40;99.90
45729;DHT22;31439;53.512;10.206;2024-03-02T14:51:04;14.40;99.90
45729;DHT22;31439;53.512;10.206;2024-03-02T14:53:30;14.30;99.90
45729;DHT22;31439;53.512;10.206;2024-03-02T15:00:49;14.20;99.90
45729;DHT22;31439;53.512;10.206;2024-03-02T15:05:40;14.20;99.90
45729;DHT22;31439;53.512;10.206;2024-03-02T15:08:06;14.10;99.90
45729;DHT22;31439;53.512;10.206;2024-03-02T15:10:32;14.10;99.90
45729;DHT22;31439;53.512;10.206;2024-03-02T15:12:58;14.00;99.90
45729;DHT22;31439;53.512;10.206;2024-03-02T15:17:53;13.90;99.90
45729;DHT22;31439;53.512;10.206;2024-03-02T15:22:47;13.80;99.90
45729;DHT22;31439;53.512;10.206;2024-03-02T15:27:42;13.70;99.90
45729;DHT22;31439;53.512;10.206;2024-03-02T15:30:08;13.70;99.90
45729;DHT22;31439;53.512;10.206;2024-03-02T15:35:00;13.60;99.90
45729;DHT22;31439;53.512;10.206;2024-03-02T15:37:25;13.60;99.90
45729;DHT22;31439;53.512;10.206;2024-03-02T15:39:51;13.60;99.90
45729;DHT22;31439;53.512;10.206;2024-03-02T15:42:17;13.60;99.90
45729;DHT22;31439;53.512;10.206;2024-03-02T15:44:43;13.60;99.90
45729;DHT22;31439;53.512;10.206;2024-03-02T15:47:09;13.60;99.90
45729;DHT22;31439;53.512;10.206;2024-03-02T15:56:54;13.80;99.90
45729;DHT22;31439;53.512;10.206;2024-03-02T15:59:20;13.90;99.90
45729;DHT22;31439;53.512;10.206;2024-03-02T16:04:11;14.00;99.90
45729;DHT22;31439;53.512;10.206;2024-03-02T16:06:37;13.80;99.90
45729;DHT22;31439;53.512;10.206;2024-03-02T16:09:02;13.70;99.90
45729;DHT22;31439;53.512;10.206;2024-03-02T16:16:24;13.50;99.90
45729;DHT22;31439;53.512;10.206;2024-03-02T16:18:49;13.40;99.90
45729;DHT22;31439;53.512;10.206;2024-03-02T16:21:15;13.40;99.90
45729;DHT22;31439;53.512;10.206;2024-03-02T16:26:10;13.30;99.90
45729;DHT22;31439;53.512;10.206;2024-03-02T16:28:35;13.30;99.90
45729;DHT22;31439;53.512;10.206;2024-03-02T16:31:11;13.20;99.90
45729;DHT22;31439;53.512;10.206;2024-03-02T16:33:41;13.20;99.90
45729;DHT22;31439;53.512;10.206;2024-03-02T16:36:09;13.20;99.90
45729;DHT22;31439;53.512;10.206;2024-03-02T16:38:35;13.10;99.90
45729;DHT22;31439;53.512;10.206;2024-03-02T16:41:44;13.00;99.90
45729;DHT22;31439;53.512;10.206;2024-03-02T16:59:23;12.80;99.90
45729;DHT22;31439;53.512;10.206;2024-03-02T17:01:54;12.80;99.90
45729;DHT22;31439;53.512;10.206;2024-03-02T17:04:20;12.70;99.90
45729;DHT22;31439;53.512;10.206;2024-03-02T17:06:55;12.60;99.90
45729;DHT22;31439;53.512;10.206;2024-03-02T17:09:38;13.50;99.90
45729;DHT22;31439;53.512;10.206;2024-03-02T17:12:26;12.50;99.90
45729;DHT22;31439;53.512;10.206;2024-03-02T17:18:09;12.50;99.90
45729;DHT22;31439;53.512;10.206;2024-03-02T17:20:41;12.50;99.90
45729;DHT22;31439;53.512;10.206;2024-03-02T17:23:28;12.40;99.90
45729;DHT22;31439;53.512;10.206;2024-03-02T17:28:23;12.40;99.90
45729;DHT22;31439;53.512;10.206;2024-03-02T17:38:13;12.30;99.90
45729;DHT22;31439;53.512;10.206;2024-03-02T17:43:32;12.20;99.90
45729;DHT22;31439;53.512;10.206;2024-03-02T17:50:53;9.20;99.90
45729;DHT22;31439;53.512;10.206;2024-03-02T17:53:36;12.20;99.90
45729;DHT22;31439;53.512;10.206;2024-03-02T18:03:30;12.20;99.90
45729;DHT22;31439;53.512;10.206;2024-03-02T18:08:21;12.10;99.90
45729;DHT22;31439;53.512;10.206;2024-03-02T18:13:15;12.00;99.90
45729;DHT22;31439;53.512;10.206;2024-03-02T18:18:08;12.00;99.90
45729;DHT22;31439;53.512;10.206;2024-03-02T18:20:35;12.00;99.90
45729;DHT22;31439;53.512;10.206;2024-03-02T18:23:01;11.90;99.90
45729;DHT22;31439;53.512;10.206;2024-03-02T18:27:53;11.90;99.90
45729;DHT22;31439;53.512;10.206;2024-03-02T18:30:19;11.90;99.90
45729;DHT22;31439;53.512;10.206;2024-03-02T18:37:37;11.80;99.90
45729;DHT22;31439;53.512;10.206;2024-03-02T18:40:06;11.80;99.90
45729;DHT22;31439;53.512;10.206;2024-03-02T18:44:58;11.70;99.90
45729;DHT22;31439;53.512;10.206;2024-03-02T18:49:50;11.70;99.90